Time;durP1;ratioP1;P1;durP2;ratioP2;P2;SDS_P1;SDS_P2;PMS_P1;PMS_P2;Temp;Humidity;BMP_temperature;BMP_pressure;BME280_temperature;BME280_humidity;BME280_pressure;Samples;Min_cycle;Max_cycle;Signal;HPM_P1;HPM_P2
2022/07/05 00:00:46;;;;;;;1.45;0.90;;;16.50;99.90;;;;;;5092065;28;20209;-85
2022/07/05 00:03:13;;;;;;;1.52;1.30;;;16.50;99.90;;;;;;5091670;28;20204;-84
2022/07/05 00:05:40;;;;;;;1.80;1.10;;;16.50;99.90;;;;;;5091647;28;20291;-85
2022/07/05 00:08:07;;;;;;;1.27;1.00;;;16.50;99.90;;;;;;5092063;28;20197;-86
2022/07/05 00:10:35;;;;;;;1.27;1.08;;;16.50;99.90;;;;;;5099660;28;20295;-83
2022/07/05 00:13:03;;;;;;;2.25;0.93;;;16.40;99.90;;;;;;5112098;28;20281;-87
2022/07/05 00:15:31;;;;;;;2.22;1.25;;;16.40;99.90;;;;;;5112554;28;20200;-87
2022/07/05 00:17:58;;;;;;;1.23;1.00;;;16.40;99.90;;;;;;5108508;28;20672;-83
2022/07/05 00:20:26;;;;;;;0.82;0.82;;;16.40;99.90;;;;;;5091488;28;20185;-87
2022/07/05 00:22:53;;;;;;;2.25;1.13;;;16.30;99.90;;;;;;5091835;28;20235;-88
2022/07/05 00:25:20;;;;;;;1.13;0.90;;;16.30;99.90;;;;;;5092458;28;20280;-84
2022/07/05 00:27:47;;;;;;;1.38;1.17;;;16.30;99.90;;;;;;5091461;28;20295;-87
2022/07/05 00:30:15;;;;;;;3.03;1.00;;;16.30;99.90;;;;;;5092225;28;20201;-89
2022/07/05 00:32:43;;;;;;;1.58;1.00;;;16.30;99.90;;;;;;5111969;28;20738;-87
2022/07/05 00:35:10;;;;;;;1.13;1.00;;;16.30;99.90;;;;;;5103860;28;20500;-89
2022/07/05 00:37:37;;;;;;;1.98;1.23;;;16.30;99.90;;;;;;5090524;28;20517;-88
2022/07/05 00:40:05;;;;;;;2.08;1.15;;;16.40;99.90;;;;;;5089302;28;20583;-87
2022/07/05 00:42:32;;;;;;;2.00;1.13;;;16.40;99.90;;;;;;5096933;28;20236;-84
2022/07/05 00:44:59;;;;;;;1.58;1.00;;;16.40;99.90;;;;;;5100824;28;20239;-87
2022/07/05 00:47:26;;;;;;;1.67;1.00;;;16.40;99.90;;;;;;5098820;28;20637;-88
2022/07/05 00:49:54;;;;;;;1.27;1.10;;;16.40;99.90;;;;;;5100054;28;20304;-90
2022/07/05 00:52:21;;;;;;;2.70;1.20;;;16.40;99.90;;;;;;5093052;28;20193;-88
2022/07/05 00:54:49;;;;;;;1.13;1.02;;;16.40;99.90;;;;;;5091001;28;20216;-82
2022/07/05 00:57:17;;;;;;;4.72;1.30;;;16.40;99.90;;;;;;5090059;28;20651;-83
2022/07/05 00:59:44;;;;;;;3.15;1.35;;;16.40;99.90;;;;;;5088463;28;20204;-81
2022/07/05 01:02:11;;;;;;;1.15;1.05;;;16.50;99.90;;;;;;5088719;28;20284;-85
2022/07/05 01:04:37;;;;;;;1.60;1.20;;;16.50;99.90;;;;;;5087736;28;20208;-84
2022/07/05 01:07:07;;;;;;;2.95;1.27;;;16.50;99.90;;;;;;5088013;28;20524;-81
2022/07/05 01:09:35;;;;;;;2.85;1.33;;;16.50;99.90;;;;;;5087558;28;20534;-81
2022/07/05 01:12:03;;;;;;;2.10;1.10;;;16.50;99.90;;;;;;5099178;28;20218;-82
2022/07/05 01:14:30;;;;;;;4.53;1.08;;;16.50;99.90;;;;;;5108051;28;20237;-84
2022/07/05 01:16:59;;;;;;;4.05;1.20;;;16.60;99.90;;;;;;5108253;28;20223;-80
2022/07/05 01:19:27;;;;;;;2.83;1.20;;;16.70;99.90;;;;;;5102287;28;20206;-80
2022/07/05 01:21:54;;;;;;;3.55;1.50;;;16.70;99.90;;;;;;5087579;28;20267;-85
2022/07/05 01:24:24;;;;;;;1.58;1.40;;;16.70;99.90;;;;;;5088035;28;20215;-82
2022/07/05 01:26:51;;;;;;;1.65;1.17;;;16.70;99.90;;;;;;5088029;28;20289;-81
2022/07/05 01:29:19;;;;;;;2.50;1.08;;;16.60;99.90;;;;;;5087939;28;20204;-79
2022/07/05 01:31:45;;;;;;;3.53;1.00;;;16.60;99.90;;;;;;5087629;28;20192;-87
2022/07/05 01:34:12;;;;;;;2.47;1.20;;;16.60;99.90;;;;;;5095746;28;20212;-81
2022/07/05 01:36:40;;;;;;;2.38;1.10;;;16.60;99.90;;;;;;5086693;28;20204;-82
2022/07/05 01:39:08;;;;;;;1.83;1.30;;;16.60;99.90;;;;;;5087500;28;20202;-81
2022/07/05 01:41:37;;;;;;;1.98;1.00;;;16.60;99.90;;;;;;5087831;28;20300;-81
2022/07/05 01:44:05;;;;;;;1.17;1.02;;;16.60;99.90;;;;;;5087412;28;20248;-83
2022/07/05 01:46:36;;;;;;;2.22;1.15;;;16.50;99.90;;;;;;5086850;28;20200;-81
2022/07/05 01:49:06;;;;;;;1.70;1.10;;;16.50;99.90;;;;;;5088187;28;20208;-83
2022/07/05 01:51:39;;;;;;;2.15;1.58;;;16.60;99.90;;;;;;5088106;28;20188;-84
2022/07/05 01:54:06;;;;;;;2.60;1.00;;;16.60;99.90;;;;;;5088164;28;20273;-82
2022/07/05 01:56:33;;;;;;;3.13;1.15;;;16.60;99.90;;;;;;5088085;28;20228;-88
2022/07/05 01:59:02;;;;;;;2.17;1.10;;;16.50;99.90;;;;;;5090418;28;20223;-88
2022/07/05 02:01:37;;;;;;;6.45;2.08;;;16.60;99.90;;;;;;5090830;28;20200;-86
2022/07/05 02:04:05;;;;;;;1.77;1.00;;;16.70;99.90;;;;;;5106815;28;20238;-87
2022/07/05 02:06:33;;;;;;;2.95;1.45;;;16.70;99.90;;;;;;5103645;28;20214;-90
2022/07/05 02:09:00;;;;;;;1.33;1.00;;;16.70;99.90;;;;;;5090204;28;20196;-88
2022/07/05 02:11:27;;;;;;;2.05;1.10;;;16.70;99.90;;;;;;5088164;28;20329;-85
2022/07/05 02:13:54;;;;;;;3.10;1.05;;;16.70;99.90;;;;;;5087457;28;20205;-81
2022/07/05 02:16:25;;;;;;;0.98;0.98;;;16.70;99.90;;;;;;5090239;28;20296;-85
2022/07/05 02:18:52;;;;;;;2.03;0.90;;;16.80;99.90;;;;;;5089700;28;20323;-88
2022/07/05 02:21:19;;;;;;;2.15;1.05;;;16.80;99.90;;;;;;5099543;28;20287;-90
2022/07/05 02:23:46;;;;;;;2.88;1.23;;;16.70;99.90;;;;;;5098304;28;20228;-88
2022/07/05 02:26:15;;;;;;;3.28;1.13;;;16.70;99.90;;;;;;5096004;28;20695;-86
2022/07/05 02:28:43;;;;;;;2.95;1.23;;;16.70;99.90;;;;;;5097620;28;20267;-90
2022/07/05 02:31:10;;;;;;;1.48;1.00;;;16.70;99.90;;;;;;5095945;28;20207;-88
2022/07/05 02:33:39;;;;;;;4.95;1.50;;;16.70;99.90;;;;;;5094364;28;20671;-88
2022/07/05 02:36:10;;;;;;;3.10;1.40;;;16.70;99.90;;;;;;5094474;28;20304;-87
2022/07/05 02:38:37;;;;;;;1.52;1.20;;;16.70;99.90;;;;;;5095844;28;20239;-88
2022/07/05 02:41:06;;;;;;;2.78;1.40;;;16.70;99.90;;;;;;5097931;28;20718;-89
2022/07/05 02:43:34;;;;;;;4.05;1.30;;;16.80;99.90;;;;;;5097082;28;20240;-87
2022/07/05 02:46:00;;;;;;;2.03;1.33;;;16.80;99.90;;;;;;5109989;28;20208;-87
2022/07/05 02:48:28;;;;;;;3.03;1.75;;;16.70;99.90;;;;;;5114519;28;20200;-88
2022/07/05 02:50:56;;;;;;;3.83;1.13;;;16.80;99.90;;;;;;5115869;28;20203;-89
2022/07/05 02:53:24;;;;;;;2.95;1.70;;;16.80;99.90;;;;;;5110656;28;20208;-84
2022/07/05 02:55:50;;;;;;;2.95;1.20;;;16.80;99.90;;;;;;5094234;28;20291;-87
2022/07/05 02:58:18;;;;;;;1.63;1.33;;;16.80;99.90;;;;;;5106400;28;20245;-89
2022/07/05 03:00:45;;;;;;;4.88;1.25;;;16.80;99.90;;;;;;5114459;28;20199;-90
2022/07/05 03:03:12;;;;;;;3.58;1.27;;;16.90;99.90;;;;;;5114558;28;20355;-90
2022/07/05 03:05:39;;;;;;;2.08;1.17;;;16.80;99.90;;;;;;5113548;28;20204;-87
2022/07/05 03:08:07;;;;;;;1.98;1.40;;;16.70;99.90;;;;;;5114330;28;20639;-88
2022/07/05 03:10:35;;;;;;;2.78;1.30;;;16.80;99.90;;;;;;5096484;28;20215;-90
2022/07/05 03:13:02;;;;;;;2.83;1.15;;;16.80;99.90;;;;;;5098512;28;20200;-85
2022/07/05 03:15:29;;;;;;;3.47;1.27;;;16.80;99.90;;;;;;5114706;28;20184;-90
2022/07/05 03:17:56;;;;;;;2.42;1.30;;;16.80;99.90;;;;;;5108185;28;20702;-90
2022/07/05 03:20:23;;;;;;;1.83;1.20;;;16.80;99.90;;;;;;5094137;28;20199;-90
2022/07/05 03:22:50;;;;;;;2.88;1.02;;;16.80;99.90;;;;;;5093907;28;20221;-90
2022/07/05 03:25:19;;;;;;;3.17;1.70;;;16.80;99.90;;;;;;5094296;28;20280;-91
2022/07/05 03:27:47;;;;;;;3.90;1.35;;;16.80;99.90;;;;;;5093637;28;20209;-89
2022/07/05 03:30:14;;;;;;;3.10;1.30;;;16.70;99.90;;;;;;5093784;28;20197;-90
2022/07/05 03:32:41;;;;;;;3.55;1.10;;;16.80;99.90;;;;;;5093381;28;20311;-88
2022/07/05 03:35:09;;;;;;;2.42;1.45;;;16.70;99.90;;;;;;5093265;28;20215;-89
2022/07/05 03:37:36;;;;;;;2.55;1.20;;;16.70;99.90;;;;;;5092393;28;20224;-88
2022/07/05 03:40:05;;;;;;;1.33;0.93;;;16.80;99.90;;;;;;5093554;28;20211;-86
2022/07/05 03:42:35;;;;;;;3.17;1.00;;;16.70;99.90;;;;;;5090977;28;20228;-84
2022/07/05 03:45:01;;;;;;;1.70;1.05;;;16.70;99.90;;;;;;5091929;28;20210;-81
2022/07/05 03:47:28;;;;;;;1.63;1.30;;;16.70;99.90;;;;;;5091843;28;20604;-87
2022/07/05 03:49:55;;;;;;;5.15;1.20;;;16.70;99.90;;;;;;5090852;28;20219;-83
2022/07/05 03:52:22;;;;;;;1.33;1.00;;;16.80;99.90;;;;;;5087667;28;20519;-84
2022/07/05 03:54:49;;;;;;;2.53;1.35;;;16.80;99.90;;;;;;5091458;28;20222;-82
2022/07/05 03:57:16;;;;;;;2.22;1.00;;;16.80;99.90;;;;;;5092877;28;20204;-87
2022/07/05 03:59:44;;;;;;;2.72;1.10;;;16.80;99.90;;;;;;5093855;28;20220;-89
2022/07/05 04:02:11;;;;;;;2.58;0.90;;;16.80;99.90;;;;;;5093293;28;20212;-88
2022/07/05 04:04:38;;;;;;;1.35;1.05;;;16.70;99.90;;;;;;5093604;28;20244;-89
2022/07/05 04:07:05;;;;;;;2.10;1.20;;;16.70;99.90;;;;;;5093545;28;20263;-89
2022/07/05 04:09:32;;;;;;;2.15;1.10;;;16.80;99.90;;;;;;5092514;28;20542;-86
2022/07/05 04:11:59;;;;;;;2.03;1.15;;;16.80;99.90;;;;;;5093456;28;20303;-88
2022/07/05 04:14:26;;;;;;;2.05;1.10;;;16.70;99.90;;;;;;5092816;28;20204;-88
2022/07/05 04:16:54;;;;;;;3.50;1.02;;;16.70;99.90;;;;;;5099158;28;20233;-86
2022/07/05 04:19:21;;;;;;;1.65;0.90;;;16.80;99.90;;;;;;5113433;28;20250;-88
2022/07/05 04:21:48;;;;;;;2.30;1.20;;;16.80;99.90;;;;;;5111793;28;20196;-87
2022/07/05 04:24:15;;;;;;;2.15;1.05;;;16.70;99.90;;;;;;5113725;28;20199;-89
2022/07/05 04:26:42;;;;;;;2.28;1.10;;;16.70;99.90;;;;;;5112718;27;20797;-89
2022/07/05 04:29:09;;;;;;;3.33;1.15;;;16.70;99.90;;;;;;5113612;28;20196;-88
2022/07/05 04:31:36;;;;;;;1.83;0.80;;;16.70;99.90;;;;;;5113176;28;20200;-89
2022/07/05 04:34:04;;;;;;;4.80;1.38;;;16.70;99.90;;;;;;5106911;28;20230;-88
2022/07/05 04:36:31;;;;;;;3.60;1.10;;;16.70;99.90;;;;;;5092528;28;20202;-89
2022/07/05 04:38:59;;;;;;;4.03;1.45;;;16.80;99.90;;;;;;5090862;28;20608;-81
2022/07/05 04:41:25;;;;;;;3.67;1.27;;;16.80;99.90;;;;;;5087750;28;20215;-88
2022/07/05 04:43:52;;;;;;;1.92;0.95;;;16.80;99.90;;;;;;5091071;28;20269;-86
2022/07/05 04:46:19;;;;;;;4.88;1.17;;;16.80;99.90;;;;;;5091047;28;20204;-86
2022/07/05 04:48:46;;;;;;;1.63;0.80;;;16.80;99.90;;;;;;5098668;28;20227;-86
2022/07/05 04:51:15;;;;;;;2.58;0.90;;;16.90;99.90;;;;;;5112837;28;20206;-86
2022/07/05 04:53:42;;;;;;;4.97;1.25;;;16.90;99.90;;;;;;5110484;28;20200;-88
2022/07/05 04:56:10;;;;;;;4.35;1.25;;;16.90;99.90;;;;;;5108319;28;20298;-85
2022/07/05 04:58:36;;;;;;;1.40;0.90;;;17.00;99.90;;;;;;5102014;28;20216;-87
2022/07/05 05:01:03;;;;;;;1.45;0.90;;;17.00;99.90;;;;;;5099195;28;20596;-87
2022/07/05 05:03:30;;;;;;;2.92;1.10;;;17.10;99.90;;;;;;5103336;28;20214;-87
2022/07/05 05:05:57;;;;;;;2.65;0.90;;;17.10;99.90;;;;;;5103168;28;20199;-85
2022/07/05 05:08:26;;;;;;;4.38;0.95;;;17.20;99.90;;;;;;5094892;28;20215;-86
2022/07/05 05:10:53;;;;;;;3.90;1.20;;;17.30;99.90;;;;;;5091779;28;20511;-87
2022/07/05 05:13:20;;;;;;;2.03;0.93;;;17.20;99.90;;;;;;5091746;28;20200;-87
2022/07/05 05:15:46;;;;;;;0.93;0.80;;;17.20;99.90;;;;;;5091163;28;20224;-85
2022/07/05 05:18:15;;;;;;;3.55;1.02;;;17.20;99.90;;;;;;5091867;28;20216;-87
2022/07/05 05:20:42;;;;;;;2.50;1.00;;;17.30;99.90;;;;;;5091400;28;20215;-88
2022/07/05 05:23:09;;;;;;;2.03;1.00;;;17.50;99.90;;;;;;5091390;28;20615;-87
2022/07/05 05:25:37;;;;;;;3.13;0.88;;;17.80;99.90;;;;;;5091164;28;20330;-87
2022/07/05 05:28:04;;;;;;;1.67;0.90;;;18.00;99.90;;;;;;5090443;28;20189;-89
2022/07/05 05:30:32;;;;;;;2.95;1.10;;;18.10;99.90;;;;;;5090817;28;20236;-86
2022/07/05 05:32:58;;;;;;;2.80;0.98;;;18.30;99.90;;;;;;5111033;28;20267;-86
2022/07/05 05:35:25;;;;;;;1.48;0.85;;;18.30;99.90;;;;;;5109715;28;20208;-85
2022/07/05 05:37:54;;;;;;;2.30;0.98;;;18.30;99.90;;;;;;5098374;28;20208;-86
2022/07/05 05:40:22;;;;;;;2.78;0.90;;;18.20;99.90;;;;;;5091125;28;20289;-87
2022/07/05 05:42:51;;;;;;;3.17;1.10;;;18.30;99.90;;;;;;5091288;28;20229;-86
2022/07/05 05:45:19;;;;;;;2.97;0.77;;;18.30;99.90;;;;;;5091181;28;20262;-86
2022/07/05 05:47:48;;;;;;;3.58;1.23;;;18.20;99.90;;;;;;5091302;28;20199;-87
2022/07/05 05:50:18;;;;;;;2.33;0.90;;;18.20;99.90;;;;;;5094265;28;20822;-85
2022/07/05 05:52:45;;;;;;;4.43;1.20;;;18.30;99.90;;;;;;5095391;28;20373;-86
2022/07/05 05:55:12;;;;;;;2.03;0.85;;;18.40;99.90;;;;;;5095008;28;20184;-86
2022/07/05 05:57:39;;;;;;;2.25;1.30;;;18.50;99.90;;;;;;5094678;28;20417;-85
2022/07/05 06:00:10;;;;;;;5.45;1.27;;;18.50;99.90;;;;;;5095492;28;20900;-88
2022/07/05 06:02:36;;;;;;;4.45;1.27;;;18.50;99.90;;;;;;5105823;28;20218;-86
2022/07/05 06:05:04;;;;;;;2.38;1.13;;;18.50;99.90;;;;;;5114577;28;20256;-88
2022/07/05 06:07:31;;;;;;;3.15;0.95;;;18.50;99.90;;;;;;5115233;28;20202;-84
2022/07/05 06:09:58;;;;;;;2.75;1.00;;;18.60;99.90;;;;;;5093671;28;20204;-85
2022/07/05 06:12:24;;;;;;;3.88;1.20;;;18.70;99.90;;;;;;5093978;28;20615;-86
2022/07/05 06:14:51;;;;;;;3.75;1.10;;;18.90;99.90;;;;;;5094151;28;20204;-82
2022/07/05 06:17:19;;;;;;;2.45;0.80;;;19.00;99.90;;;;;;5094346;28;20608;-85
2022/07/05 06:19:46;;;;;;;2.00;0.98;;;19.10;99.90;;;;;;5093687;28;20220;-86
2022/07/05 06:22:13;;;;;;;1.63;1.10;;;19.20;99.90;;;;;;5094825;28;20236;-83
2022/07/05 06:24:40;;;;;;;6.45;1.73;;;19.30;99.90;;;;;;5093260;28;20874;-80
2022/07/05 06:27:07;;;;;;;3.97;1.30;;;19.30;99.90;;;;;;5093724;28;20204;-88
2022/07/05 06:29:34;;;;;;;3.20;1.23;;;19.40;99.90;;;;;;5093944;28;20304;-86
2022/07/05 06:32:01;;;;;;;3.30;0.88;;;19.40;99.90;;;;;;5093754;28;20224;-85
2022/07/05 06:34:29;;;;;;;3.13;1.00;;;19.60;99.90;;;;;;5093712;28;20246;-84
2022/07/05 06:36:56;;;;;;;1.83;1.15;;;19.70;99.90;;;;;;5092169;28;20299;-81
2022/07/05 06:39:23;;;;;;;1.95;1.17;;;20.00;99.90;;;;;;5093398;28;20281;-84
2022/07/05 06:41:50;;;;;;;3.35;1.10;;;20.40;99.90;;;;;;5093623;28;20276;-84
2022/07/05 06:44:16;;;;;;;5.47;1.00;;;20.70;99.90;;;;;;5093038;28;20271;-86
2022/07/05 06:46:43;;;;;;;2.03;0.80;;;20.70;99.90;;;;;;5090178;28;20509;-85
2022/07/05 06:49:10;;;;;;;2.92;0.98;;;20.50;99.90;;;;;;5089884;28;20216;-87
2022/07/05 06:51:38;;;;;;;3.40;0.90;;;20.40;99.90;;;;;;5091828;28;20292;-83
2022/07/05 06:54:05;;;;;;;1.25;0.80;;;20.40;99.90;;;;;;5087496;28;20197;-81
2022/07/05 06:56:32;;;;;;;5.57;1.00;;;20.50;99.90;;;;;;5089119;28;20212;-83
2022/07/05 06:58:59;;;;;;;4.53;1.08;;;20.90;99.90;;;;;;5088652;28;20224;-81
2022/07/05 07:01:26;;;;;;;6.85;1.10;;;21.30;99.90;;;;;;5086952;28;20219;-82
2022/07/05 07:03:53;;;;;;;2.63;1.00;;;21.50;99.90;;;;;;5088663;28;20211;-84
2022/07/05 07:06:20;;;;;;;4.10;0.93;;;21.70;99.90;;;;;;5091672;28;20205;-84
2022/07/05 07:11:33;;;;;;;2.92;1.10;;;21.80;99.90;;;;;;5090954;28;20215;-88
2022/07/05 07:14:00;;;;;;;5.10;1.23;;;21.70;99.90;;;;;;5089607;28;20287;-85
2022/07/05 07:16:27;;;;;;;2.67;0.70;;;21.90;99.90;;;;;;5087472;28;20204;-83
2022/07/05 07:18:54;;;;;;;5.38;1.00;;;22.20;99.90;;;;;;5092603;28;20221;-87
2022/07/05 07:21:21;;;;;;;4.28;1.00;;;22.60;99.90;;;;;;5092914;28;20285;-85
2022/07/05 07:23:49;;;;;;;2.97;1.00;;;22.80;99.90;;;;;;5093597;28;20239;-86
2022/07/05 07:26:16;;;;;;;4.28;0.90;;;23.00;99.90;;;;;;5094007;28;20207;-84
2022/07/05 07:28:43;;;;;;;3.90;0.95;;;23.40;99.90;;;;;;5093012;28;20249;-84
2022/07/05 07:31:10;;;;;;;4.88;1.20;;;23.70;99.90;;;;;;5093073;28;20208;-87
2022/07/05 07:33:37;;;;;;;2.88;0.90;;;23.80;99.90;;;;;;5092749;28;20216;-89
2022/07/05 07:36:04;;;;;;;2.55;0.77;;;24.00;99.90;;;;;;5093123;28;20208;-81
2022/07/05 07:38:31;;;;;;;2.65;0.95;;;24.00;99.90;;;;;;5106877;28;20287;-85
2022/07/05 07:41:01;;;;;;;3.78;1.00;;;24.00;99.90;;;;;;5107458;28;20200;-85
2022/07/05 07:43:28;;;;;;;3.28;0.98;;;24.10;99.90;;;;;;5091738;28;20244;-88
2022/07/05 07:45:56;;;;;;;3.90;0.75;;;24.40;99.90;;;;;;5097207;28;20216;-89
2022/07/05 07:48:24;;;;;;;3.45;1.10;;;24.10;99.90;;;;;;5110678;27;20207;-89
2022/07/05 07:50:51;;;;;;;4.38;1.10;;;24.00;99.90;;;;;;5116392;27;20217;-88
2022/07/05 07:53:18;;;;;;;4.35;0.98;;;24.00;99.90;;;;;;5110757;27;20487;-89
2022/07/05 07:55:45;;;;;;;3.30;0.70;;;24.10;99.90;;;;;;5110775;27;20221;-89
2022/07/05 07:58:14;;;;;;;2.60;1.20;;;24.10;99.90;;;;;;5109250;27;20220;-90
2022/07/05 08:00:42;;;;;;;2.50;0.98;;;24.10;99.90;;;;;;5116093;27;20233;-89
2022/07/05 08:03:08;;;;;;;2.20;0.90;;;24.20;99.90;;;;;;5122165;27;20294;-90
2022/07/05 08:05:35;;;;;;;3.10;1.00;;;24.10;99.90;;;;;;5111232;27;20886;-88
2022/07/05 08:08:02;;;;;;;2.67;1.02;;;24.10;99.90;;;;;;5097403;28;20549;-87
2022/07/05 08:10:29;;;;;;;3.13;1.00;;;24.10;99.90;;;;;;5108846;28;20263;-92
2022/07/05 08:12:56;;;;;;;4.18;1.50;;;24.30;99.90;;;;;;5111210;28;20736;-91
2022/07/05 08:15:24;;;;;;;5.45;1.25;;;24.50;99.90;;;;;;5093054;28;20209;-93
2022/07/05 08:23:19;;;;;;;6.10;1.35;;;24.40;99.90;;;;;;5091963;28;20199;-88
2022/07/05 08:25:46;;;;;;;4.07;1.20;;;24.20;99.90;;;;;;5092760;28;20214;-92
2022/07/05 08:28:13;;;;;;;2.38;0.95;;;24.30;99.90;;;;;;5093081;28;20232;-93
2022/07/05 08:30:41;;;;;;;3.72;1.10;;;24.20;99.90;;;;;;5100937;28;20204;-91
2022/07/05 08:33:08;;;;;;;2.60;1.10;;;24.20;99.90;;;;;;5112803;28;20323;-94
2022/07/05 08:35:35;;;;;;;5.90;1.20;;;23.80;99.90;;;;;;5112580;28;20207;-91
2022/07/05 08:38:02;;;;;;;5.43;1.27;;;23.90;99.90;;;;;;5096086;28;20204;-85
2022/07/05 08:40:33;;;;;;;3.70;1.02;;;23.60;99.90;;;;;;5091053;28;20232;-92
2022/07/05 08:43:02;;;;;;;5.68;1.20;;;23.50;99.90;;;;;;5109599;28;20228;-93
2022/07/05 08:45:32;;;;;;;5.30;1.25;;;23.10;99.90;;;;;;5107430;28;20306;-90
2022/07/05 08:48:01;;;;;;;6.15;1.40;;;23.20;99.90;;;;;;5101293;28;20504;-90
2022/07/05 08:50:29;;;;;;;3.90;1.02;;;23.10;99.90;;;;;;5092982;28;20238;-92
2022/07/05 08:52:56;;;;;;;2.60;1.02;;;23.10;99.90;;;;;;5095063;28;20295;-90
2022/07/05 08:55:23;;;;;;;2.90;1.10;;;23.30;99.90;;;;;;5112912;28;20204;-88
2022/07/05 08:57:50;;;;;;;5.40;1.38;;;23.50;99.90;;;;;;5107730;28;20872;-89
2022/07/05 09:00:18;;;;;;;3.97;1.42;;;23.70;99.90;;;;;;5112945;28;20227;-88
2022/07/05 09:02:44;;;;;;;2.70;1.27;;;24.00;99.90;;;;;;5112768;28;20227;-85
2022/07/05 09:05:15;;;;;;;4.25;1.20;;;24.30;99.90;;;;;;5112136;28;20206;-89
2022/07/05 09:07:49;;;;;;;3.35;0.90;;;24.50;99.90;;;;;;5095251;28;20216;-90
2022/07/05 09:10:20;;;;;;;3.00;1.05;;;24.60;99.90;;;;;;5092798;28;20193;-92
2022/07/05 09:12:47;;;;;;;3.10;0.90;;;24.80;99.90;;;;;;5091510;28;20204;-90
2022/07/05 09:15:13;;;;;;;4.35;1.20;;;24.80;99.90;;;;;;5110816;28;20298;-84
2022/07/05 09:17:44;;;;;;;3.85;1.35;;;25.00;99.90;;;;;;5109575;28;20612;-88
2022/07/05 09:20:14;;;;;;;3.25;1.10;;;25.00;99.90;;;;;;5111902;28;20220;-87
2022/07/05 09:22:49;;;;;;;2.78;0.90;;;25.10;99.90;;;;;;5111278;28;20214;-88
2022/07/05 09:25:22;;;;;;;2.60;0.90;;;25.40;99.90;;;;;;5112181;28;20199;-93
2022/07/05 09:27:54;;;;;;;4.10;1.17;;;25.60;99.90;;;;;;5109829;28;20235;-86
2022/07/05 09:30:30;;;;;;;4.28;1.13;;;25.80;99.90;;;;;;5095725;28;21031;-85
2022/07/05 09:33:07;;;;;;;4.00;1.17;;;25.70;99.90;;;;;;5107436;28;20306;-85
2022/07/05 09:35:37;;;;;;;3.28;1.02;;;25.80;99.90;;;;;;5086269;28;20642;-85
2022/07/05 09:38:04;;;;;;;2.45;0.98;;;25.30;99.90;;;;;;5087359;28;20244;-84
2022/07/05 09:40:32;;;;;;;2.85;1.25;;;25.00;99.90;;;;;;5086347;28;20234;-87
2022/07/05 09:43:15;;;;;;;3.35;1.20;;;25.00;99.90;;;;;;5088280;28;20233;-86
2022/07/05 09:45:55;;;;;;;1.95;0.95;;;25.10;99.90;;;;;;5087418;28;20221;-84
2022/07/05 09:48:22;;;;;;;3.60;1.27;;;25.10;99.90;;;;;;5087182;28;20323;-87
2022/07/05 09:50:51;;;;;;;3.75;1.10;;;25.30;99.90;;;;;;5087121;28;20475;-82
2022/07/05 09:53:19;;;;;;;3.92;0.98;;;25.20;99.90;;;;;;5090125;28;20220;-91
2022/07/05 09:56:01;;;;;;;5.20;0.90;;;25.10;99.90;;;;;;5105757;28;20488;-85
2022/07/05 09:58:29;;;;;;;4.65;1.20;;;25.10;99.90;;;;;;5105467;28;20256;-84
2022/07/05 10:00:56;;;;;;;4.82;1.65;;;25.30;99.90;;;;;;5089196;28;20224;-85
2022/07/05 10:03:23;;;;;;;3.78;0.90;;;25.40;99.90;;;;;;5085740;28;20204;-81
2022/07/05 10:05:51;;;;;;;3.33;1.00;;;25.50;99.90;;;;;;5087066;28;20208;-81
2022/07/05 10:08:21;;;;;;;3.28;0.63;;;24.90;99.90;;;;;;5086379;28;20217;-80
2022/07/05 10:10:50;;;;;;;4.40;1.65;;;24.30;99.90;;;;;;5084668;28;20707;-84
2022/07/05 10:13:17;;;;;;;2.53;0.90;;;23.80;99.90;;;;;;5085261;28;20295;-81
2022/07/05 10:15:46;;;;;;;5.95;1.08;;;23.60;99.90;;;;;;5084678;28;20224;-84
2022/07/05 10:18:14;;;;;;;2.28;0.70;;;23.50;99.90;;;;;;5084560;28;20249;-85
2022/07/05 10:20:43;;;;;;;4.80;1.30;;;23.40;99.90;;;;;;5083755;28;20904;-83
2022/07/05 10:23:13;;;;;;;2.95;1.00;;;23.60;99.90;;;;;;5083142;28;20204;-85
2022/07/05 10:25:43;;;;;;;3.97;1.35;;;23.70;99.90;;;;;;5084818;28;20686;-82
2022/07/05 10:28:10;;;;;;;3.40;0.98;;;23.60;99.90;;;;;;5086819;28;20216;-84
2022/07/05 10:30:37;;;;;;;3.92;1.25;;;23.60;99.90;;;;;;5088345;28;20211;-86
2022/07/05 10:33:07;;;;;;;3.15;0.93;;;23.50;99.90;;;;;;5085513;28;20311;-84
2022/07/05 10:35:35;;;;;;;1.63;0.93;;;23.70;99.90;;;;;;5086387;28;20209;-90
2022/07/05 10:38:05;;;;;;;2.47;0.80;;;24.10;99.90;;;;;;5093242;28;20205;-85
2022/07/05 10:40:35;;;;;;;4.70;0.90;;;24.30;99.90;;;;;;5092985;28;20252;-89
2022/07/05 10:43:03;;;;;;;5.72;1.10;;;24.30;99.90;;;;;;5100983;28;20302;-90
2022/07/05 10:45:31;;;;;;;1.63;0.75;;;24.40;99.90;;;;;;5108555;28;20237;-89
2022/07/05 10:48:18;;;;;;;3.08;0.98;;;24.30;99.90;;;;;;5103822;28;20291;-85
2022/07/05 10:50:49;;;;;;;4.10;1.42;;;24.30;99.90;;;;;;5112484;28;20230;-87
2022/07/05 10:53:17;;;;;;;2.10;0.82;;;24.10;99.90;;;;;;5111958;28;20196;-85
2022/07/05 10:55:56;;;;;;;4.47;1.30;;;24.10;99.90;;;;;;5112549;28;20506;-86
2022/07/05 10:58:28;;;;;;;1.23;0.68;;;24.30;99.90;;;;;;5112541;28;20206;-86
2022/07/05 11:01:43;;;;;;;2.17;0.70;;;24.40;99.90;;;;;;5098683;28;20232;-87
2022/07/05 11:04:33;;;;;;;3.17;0.90;;;24.50;99.90;;;;;;5091433;28;20219;-86
2022/07/05 11:07:01;;;;;;;4.60;1.40;;;24.60;99.90;;;;;;5091932;28;20246;-85
2022/07/05 11:09:28;;;;;;;4.57;1.13;;;24.60;99.90;;;;;;5092764;28;20584;-90
2022/07/05 11:12:13;;;;;;;2.85;1.02;;;24.80;99.90;;;;;;5092643;28;20208;-87
2022/07/05 11:14:47;;;;;;;2.20;1.05;;;24.80;99.90;;;;;;5090103;28;20204;-87
2022/07/05 11:17:33;;;;;;;5.15;0.85;;;24.80;99.90;;;;;;5092471;28;20540;-85
2022/07/05 11:20:05;;;;;;;2.33;0.98;;;24.60;99.90;;;;;;5091207;28;20216;-82
2022/07/05 11:22:33;;;;;;;5.55;1.55;;;24.70;99.90;;;;;;5093165;28;20230;-86
2022/07/05 11:25:01;;;;;;;3.25;1.50;;;24.70;99.90;;;;;;5104220;28;20235;-83
2022/07/05 11:27:30;;;;;;;3.33;0.80;;;24.80;99.90;;;;;;5111728;28;20278;-86
2022/07/05 11:29:57;;;;;;;2.00;1.00;;;25.00;99.90;;;;;;5112956;28;20188;-87
2022/07/05 11:32:36;;;;;;;2.60;1.00;;;25.00;99.90;;;;;;5109190;28;20220;-87
2022/07/05 11:35:15;;;;;;;5.45;0.93;;;24.70;99.90;;;;;;5110954;28;20231;-85
2022/07/05 11:38:00;;;;;;;3.35;0.95;;;24.30;99.90;;;;;;5107624;28;20211;-81
2022/07/05 11:40:33;;;;;;;3.80;1.40;;;24.10;99.90;;;;;;5110423;28;20244;-90
2022/07/05 11:43:02;;;;;;;3.15;1.10;;;24.10;99.90;;;;;;5093797;28;20236;-85
2022/07/05 11:45:30;;;;;;;3.08;1.13;;;24.30;99.90;;;;;;5090444;28;20201;-86
2022/07/05 11:47:58;;;;;;;4.70;1.42;;;24.30;99.90;;;;;;5090577;28;20546;-86
2022/07/05 11:50:32;;;;;;;3.67;1.30;;;24.30;99.90;;;;;;5090948;28;20197;-85
2022/07/05 11:53:00;;;;;;;3.25;1.30;;;24.30;99.90;;;;;;5091719;28;20235;-88
2022/07/05 11:55:29;;;;;;;3.50;1.02;;;24.20;99.90;;;;;;5090962;28;20219;-90
2022/07/05 11:57:57;;;;;;;5.57;1.13;;;24.30;99.90;;;;;;5091865;28;20206;-88
2022/07/05 12:00:33;;;;;;;4.25;1.08;;;24.10;99.90;;;;;;5088958;28;20311;-85
2022/07/05 12:03:00;;;;;;;3.95;1.50;;;24.00;99.90;;;;;;5097580;28;20195;-88
2022/07/05 12:05:32;;;;;;;3.33;1.15;;;23.70;99.90;;;;;;5112994;28;20581;-84
2022/07/05 12:07:59;;;;;;;4.97;0.88;;;23.70;99.90;;;;;;5112640;28;20196;-89
2022/07/05 12:13:22;;;;;;;2.38;1.00;;;23.70;99.90;;;;;;5068806;28;20200;-83
2022/07/05 12:15:59;;;;;;;4.85;1.40;;;23.80;99.90;;;;;;5088705;28;20604;-88
2022/07/05 12:18:26;;;;;;;3.08;1.35;;;24.00;99.90;;;;;;5090495;28;20188;-86
2022/07/05 12:20:53;;;;;;;5.20;1.30;;;24.00;99.90;;;;;;5091399;28;20315;-88
2022/07/05 12:23:27;;;;;;;4.90;1.20;;;23.90;99.90;;;;;;5090992;28;20205;-84
2022/07/05 12:25:54;;;;;;;2.42;0.82;;;24.10;99.90;;;;;;5091582;28;20206;-88
2022/07/05 12:28:21;;;;;;;4.03;1.05;;;24.10;99.90;;;;;;5091187;28;20200;-84
2022/07/05 12:30:50;;;;;;;2.55;0.90;;;24.40;99.90;;;;;;5090713;28;20201;-90
2022/07/05 12:33:21;;;;;;;3.70;1.10;;;24.70;99.90;;;;;;5091119;28;20628;-87
2022/07/05 12:35:50;;;;;;;5.07;1.88;;;24.70;99.90;;;;;;5090486;28;20205;-84
2022/07/05 12:38:20;;;;;;;3.30;1.02;;;24.70;99.90;;;;;;5090351;28;20197;-83
2022/07/05 12:40:48;;;;;;;3.92;1.20;;;24.80;99.90;;;;;;5090194;28;20223;-84
2022/07/05 12:43:17;;;;;;;3.33;1.30;;;24.70;99.90;;;;;;5089383;28;20263;-81
2022/07/05 12:45:59;;;;;;;3.85;1.40;;;24.70;99.90;;;;;;5093810;28;20204;-84
2022/07/05 12:48:33;;;;;;;3.75;1.38;;;24.30;99.90;;;;;;5091606;28;20267;-92
2022/07/05 12:51:01;;;;;;;3.78;1.27;;;24.00;99.90;;;;;;5110133;28;20204;-84
2022/07/05 12:59:00;;;;;;;3.85;1.27;;;24.20;99.90;;;;;;5087406;28;21191;-82
2022/07/05 13:01:29;;;;;;;5.57;1.10;;;24.00;99.90;;;;;;5087810;28;20224;-86
2022/07/05 13:03:59;;;;;;;3.08;1.20;;;23.50;99.90;;;;;;5094659;28;20226;-84
2022/07/05 13:06:41;;;;;;;2.13;1.35;;;23.10;99.90;;;;;;5105408;28;20221;-78
2022/07/05 13:09:08;;;;;;;3.88;1.20;;;22.90;99.90;;;;;;5087478;28;20211;-81
2022/07/05 13:11:35;;;;;;;4.97;1.13;;;23.10;99.90;;;;;;5086396;28;20280;-83